This is the latest recevied weather packets stored in our database for station/object OK2ILA-14. If no packets are shown the sender has not sent any weather packets the latest 10 day(s).
| Time | Temp. | Humidity | Pressure | Rain* | Wind** | Luminosity | Snow |
|---|---|---|---|---|---|---|---|
| 1777509257 | -2.22° C | 75% | 1029.7 hPa | - | - | - | - |
| 1777508657 | -2.22° C | 75% | 1029.8 hPa | - | - | - | - |
| 1777508057 | -2.22° C | 74% | 1029.7 hPa | - | - | - | - |
| 1777507456 | -2.22° C | 72% | 1029.6 hPa | - | - | - | - |
| 1777506864 | -1.67° C | 72% | 1029.5 hPa | - | - | - | - |
| 1777506256 | -1.67° C | 72% | 1029.5 hPa | - | - | - | - |
| 1777505656 | -1.67° C | 73% | 1029.6 hPa | - | - | - | - |
| 1777505056 | -2.22° C | 72% | 1029.5 hPa | - | - | - | - |
| 1777504456 | -1.67° C | 72% | 1029.7 hPa | - | - | - | - |
| 1777503856 | -1.67° C | 72% | 1029.6 hPa | - | - | - | - |
| 1777503255 | -1.67° C | 71% | 1029.6 hPa | - | - | - | - |
| 1777502655 | -1.67° C | 70% | 1029.4 hPa | - | - | - | - |
| 1777501455 | -1.11° C | 68% | 1029.4 hPa | - | - | - | - |
| 1777500855 | -1.11° C | 67% | 1029.3 hPa | - | - | - | - |
| 1777499655 | -1.11° C | 67% | 1029.2 hPa | - | - | - | - |
| 1777499055 | -0.56° C | 66% | 1029.1 hPa | - | - | - | - |
| 1777497854 | 0° C | 64% | 1029 hPa | - | - | - | - |
| 1777497254 | 0° C | 64% | 1028.9 hPa | - | - | - | - |
| 1777496656 | -0.56° C | 63% | 1028.8 hPa | - | - | - | - |
| 1777496054 | 0° C | 60% | 1028.7 hPa | - | - | - | - |
| 1777495454 | 0.56° C | 57% | 1028.6 hPa | - | - | - | - |
| 1777494854 | 0.56° C | 56% | 1028.5 hPa | - | - | - | - |
| 1777494254 | 0.56° C | 55% | 1028.3 hPa | - | - | - | - |
| 1777493653 | 1.67° C | 52% | 1028.3 hPa | - | - | - | - |
| 1777493053 | 2.78° C | 48% | 1028.2 hPa | - | - | - | - |
* Rain since midnight (hover to see other rain measurements)
** Current wind speed in m/s (hover to see current wind gust speed)